Terminal Aerodrome Forecast
Issued by NWS Central Illinois

Home | Current Version | Previous Version | Text Only | Print | Product List | Glossary On
Versions: 1 2 3 4 5 6 7 8 9 10 11 12 13 14 15 16 17 18 19 20 21 22
000
FTUS43 KILX 261700 RRA
TAFPIA
TAF
KPIA 261740Z 2618/2718 26007KT P6SM OVC013
      TEMPO 2618/2620 SCT015 BKN025
     FM262000 22010KT P6SM SCT025 BKN035
     FM262200 23006KT P6SM VCTS SCT040CB BKN080
      TEMPO 2622/2624 27020G35KT 3SM TSRA BR BKN025CB OVC040
     FM270200 27005KT P6SM SCT040 BKN250
     FM271500 31011G16KT P6SM SCT040=

USA.gov is the U.S. government's official web portal to all federal, state and local government web resources and services.